CheckWX is a tool to help pilots better visualize weather data.  It is not intended as a substitute for an official pre-flight weather briefing.

04:42:29 UTC

VLPS TAF
Pakse International Airport
Pakse, Lao People’s Democratic Republic
TAF VLPS 222300Z 2300/2324 18006KT 5000 HZ FEW023 SCT200 TEMPO 2300/2303 4000 BR SCT023

Mar-23@
00:00 UTC

Mar-23 @ 00:00 UTC

Mar-24@
00:00 UTC

Mar-24 @ 00:00 UTC

TAF VLPS 222300Z 2300/2324 18006KT 5000 HZ FEW023 SCT200
Wind
  • 180° at 6 KTS
Conditions
Haze
Cloud Levels
  • Few at 2,300' AGL
  • Scattered at 20,000' AGL

Mar-23@
00:00 UTC

Mar-23 @ 00:00 UTC

Mar-23@
03:00 UTC

Mar-23 @ 03:00 UTC

TEMPO 2300/2303 4000 BR SCT023

Expired

Conditions
Mist
Cloud Levels
  • Scattered at 2,300' AGL